createdAt,value
2023-01-09T00:01:34.701Z,14.10
2023-01-09T00:04:03.125Z,14.66
2023-01-09T00:06:30.724Z,14.54
2023-01-09T00:08:58.182Z,14.26
2023-01-09T00:11:26.551Z,14.01
2023-01-09T00:13:54.042Z,14.09
2023-01-09T00:16:21.657Z,14.70
2023-01-09T00:18:49.493Z,14.43
2023-01-09T00:21:17.052Z,14.94
2023-01-09T00:23:44.543Z,14.33
2023-01-09T00:26:14.574Z,13.99
2023-01-09T00:28:42.151Z,13.26
2023-01-09T00:31:10.300Z,13.85
2023-01-09T00:33:56.440Z,13.85
2023-01-09T00:36:23.872Z,14.42
2023-01-09T00:38:52.859Z,14.67
2023-01-09T00:41:33.379Z,13.68
2023-01-09T00:44:08.410Z,14.60
2023-01-09T00:46:36.711Z,14.44
2023-01-09T00:49:05.398Z,14.68
2023-01-09T00:51:32.840Z,14.09
2023-01-09T00:54:02.252Z,13.61
2023-01-09T00:56:30.067Z,13.53
2023-01-09T00:58:57.501Z,13.43
2023-01-09T01:01:25.028Z,13.44
2023-01-09T01:03:52.901Z,13.25
2023-01-09T01:06:39.264Z,13.74
2023-01-09T01:09:07.083Z,13.94
2023-01-09T01:11:34.595Z,14.19
2023-01-09T01:14:02.055Z,14.30
2023-01-09T01:16:30.086Z,13.41
2023-01-09T01:18:57.626Z,13.61
2023-01-09T01:21:25.137Z,14.12
2023-01-09T01:23:52.902Z,14.29
2023-01-09T01:26:20.388Z,14.48
2023-01-09T01:28:47.967Z,14.57
2023-01-09T01:31:17.575Z,14.71
2023-01-09T01:33:44.992Z,14.64
2023-01-09T01:36:12.555Z,14.79
2023-01-09T01:38:40.283Z,14.82
2023-01-09T01:41:07.716Z,14.80
2023-01-09T01:43:53.307Z,14.71
2023-01-09T01:46:21.096Z,14.50
2023-01-09T01:48:52.057Z,14.59
2023-01-09T01:51:22.525Z,14.17
2023-01-09T01:53:56.100Z,14.40
2023-01-09T01:56:27.793Z,14.80
2023-01-09T01:59:17.817Z,14.05
2023-01-09T02:01:49.485Z,14.46
2023-01-09T02:04:17.338Z,14.66
2023-01-09T02:06:47.424Z,14.53
2023-01-09T02:09:15.892Z,14.10
2023-01-09T02:11:47.588Z,14.25
2023-01-09T02:14:16.478Z,13.82
2023-01-09T02:16:59.641Z,13.36
2023-01-09T02:20:04.989Z,13.07
2023-01-09T02:22:54.159Z,13.11
2023-01-09T02:25:58.737Z,12.81
2023-01-09T02:28:45.148Z,13.52
2023-01-09T02:31:26.544Z,13.05
2023-01-09T02:34:14.440Z,13.49
2023-01-09T02:36:54.584Z,13.31
2023-01-09T02:39:35.347Z,13.41
2023-01-09T02:42:09.182Z,13.72
2023-01-09T02:44:37.059Z,13.71
2023-01-09T02:47:15.863Z,13.43
2023-01-09T02:49:48.764Z,13.50
2023-01-09T02:52:45.452Z,13.71
2023-01-09T02:55:24.517Z,13.65
2023-01-09T02:58:09.866Z,14.09
2023-01-09T03:00:37.246Z,13.54
2023-01-09T03:03:28.096Z,13.51
2023-01-09T03:06:02.061Z,13.92
2023-01-09T03:08:46.615Z,13.21
2023-01-09T03:11:14.062Z,13.17
2023-01-09T03:13:48.049Z,13.21
2023-01-09T03:16:20.643Z,13.08
2023-01-09T03:18:49.394Z,12.59
2023-01-09T03:21:17.599Z,12.97
2023-01-09T03:23:59.271Z,12.68
2023-01-09T03:26:29.516Z,12.68
2023-01-09T03:28:57.898Z,12.56
2023-01-09T03:31:25.865Z,12.58
2023-01-09T03:33:53.711Z,12.23
2023-01-09T03:36:22.180Z,12.63
2023-01-09T03:38:49.891Z,12.96
2023-01-09T03:41:19.412Z,13.16
2023-01-09T03:43:48.493Z,12.74
2023-01-09T03:46:16.567Z,12.72
2023-01-09T03:48:44.312Z,12.62
2023-01-09T03:51:11.763Z,12.80
2023-01-09T03:53:39.231Z,13.06
2023-01-09T03:56:07.364Z,13.82
2023-01-09T03:58:34.818Z,13.76
2023-01-09T04:01:04.041Z,14.31
2023-01-09T04:03:31.939Z,14.14
2023-01-09T04:05:59.413Z,14.43
2023-01-09T04:08:26.914Z,14.59
2023-01-09T04:10:54.630Z,14.36
2023-01-09T04:13:22.316Z,14.23
2023-01-09T04:15:49.882Z,14.35
2023-01-09T04:18:17.573Z,14.18
2023-01-09T04:20:47.512Z,13.34
2023-01-09T04:23:15.199Z,13.62
2023-01-09T04:25:43.474Z,13.66
2023-01-09T04:28:11.150Z,13.57
2023-01-09T04:30:38.566Z,13.66
2023-01-09T04:33:06.290Z,14.69
2023-01-09T04:35:33.756Z,14.51
2023-01-09T04:38:01.149Z,13.47
2023-01-09T04:40:28.879Z,14.12
2023-01-09T04:42:56.280Z,13.80
2023-01-09T04:45:23.795Z,13.76
2023-01-09T04:47:51.566Z,13.84
2023-01-09T04:50:19.276Z,13.91
2023-01-09T04:52:46.914Z,13.99
2023-01-09T04:55:15.070Z,13.80
2023-01-09T04:57:42.581Z,13.62
2023-01-09T05:00:12.284Z,13.65
2023-01-09T05:02:40.937Z,13.06
2023-01-09T05:05:11.883Z,13.50
2023-01-09T05:07:40.049Z,13.75
2023-01-09T05:10:09.341Z,13.47
2023-01-09T05:12:37.415Z,13.95
2023-01-09T05:15:07.303Z,13.65
2023-01-09T05:17:35.074Z,13.00
2023-01-09T05:20:02.617Z,13.39
2023-01-09T05:22:30.645Z,13.58
2023-01-09T05:25:00.349Z,13.48
2023-01-09T05:27:28.029Z,13.47
2023-01-09T05:29:56.085Z,13.15
2023-01-09T05:32:23.643Z,12.88
2023-01-09T05:34:51.173Z,13.44
2023-01-09T05:37:18.868Z,13.49
2023-01-09T05:39:46.256Z,13.45
2023-01-09T05:42:13.640Z,13.95
2023-01-09T05:44:41.331Z,13.84
2023-01-09T05:47:08.742Z,13.54
2023-01-09T05:49:36.128Z,12.71
2023-01-09T05:52:04.953Z,13.99
2023-01-09T05:54:32.400Z,13.85
2023-01-09T05:56:59.823Z,13.85
2023-01-09T05:59:27.537Z,13.39
2023-01-09T06:01:54.973Z,13.09
2023-01-09T06:04:22.877Z,13.64
2023-01-09T06:06:50.252Z,13.63
2023-01-09T06:09:17.953Z,13.66
2023-01-09T06:11:45.805Z,14.25
2023-01-09T06:14:13.491Z,14.42
2023-01-09T06:16:40.920Z,15.12
2023-01-09T06:19:08.876Z,15.02
2023-01-09T06:21:36.288Z,13.39
2023-01-09T06:24:03.861Z,14.07
2023-01-09T06:26:32.665Z,14.65
2023-01-09T06:29:01.614Z,14.00
2023-01-09T06:31:29.305Z,14.35
2023-01-09T06:33:57.283Z,15.31
2023-01-09T06:36:24.780Z,14.13
2023-01-09T06:38:52.205Z,13.42
2023-01-09T06:41:19.912Z,14.67
2023-01-09T06:43:47.339Z,14.62
2023-01-09T06:46:14.783Z,14.69
2023-01-09T06:48:42.583Z,14.08
2023-01-09T06:51:10.085Z,13.60
2023-01-09T06:53:37.523Z,13.03
2023-01-09T06:56:05.712Z,13.06
2023-01-09T06:58:33.139Z,12.48
2023-01-09T07:01:03.830Z,12.96
2023-01-09T07:03:33.689Z,12.38
2023-01-09T07:06:01.331Z,13.21
2023-01-09T07:08:28.772Z,14.58
2023-01-09T07:10:56.528Z,13.76
2023-01-09T07:13:23.933Z,13.30
2023-01-09T07:15:53.624Z,12.71
2023-01-09T07:18:21.429Z,13.30
2023-01-09T07:20:49.309Z,13.36
2023-01-09T07:23:18.845Z,13.69
2023-01-09T07:25:46.635Z,13.14
2023-01-09T07:28:14.035Z,13.57
2023-01-09T07:30:41.467Z,13.63
2023-01-09T07:33:09.404Z,13.15
2023-01-09T07:35:37.878Z,13.36
2023-01-09T07:38:05.341Z,12.47
2023-01-09T07:40:33.163Z,12.41
2023-01-09T07:43:00.635Z,12.95
2023-01-09T07:45:28.474Z,13.32
2023-01-09T07:47:56.433Z,12.89
2023-01-09T07:50:23.920Z,13.14
2023-01-09T07:52:51.383Z,13.17
2023-01-09T07:55:19.084Z,13.79
2023-01-09T07:57:51.228Z,13.54
2023-01-09T08:00:21.071Z,13.18
2023-01-09T08:02:54.878Z,13.33
2023-01-09T08:05:22.556Z,13.29
2023-01-09T08:07:51.455Z,13.71
2023-01-09T08:10:19.898Z,12.64
2023-01-09T08:12:48.429Z,13.20
2023-01-09T08:15:16.799Z,14.59
2023-01-09T08:17:45.551Z,13.40
2023-01-09T08:20:15.877Z,12.52
2023-01-09T08:22:49.601Z,13.05
2023-01-09T08:25:17.914Z,13.01
2023-01-09T08:27:46.045Z,14.04
2023-01-09T08:30:14.617Z,13.71
2023-01-09T08:32:43.583Z,13.29
2023-01-09T08:35:11.390Z,14.51
2023-01-09T08:37:38.852Z,14.26
2023-01-09T08:40:06.814Z,12.53
2023-01-09T08:42:53.300Z,12.48
2023-01-09T08:45:39.291Z,12.67
2023-01-09T08:48:07.346Z,12.19
2023-01-09T08:50:34.852Z,12.14
2023-01-09T08:53:02.486Z,13.28
2023-01-09T08:55:30.346Z,13.98
2023-01-09T08:57:57.862Z,13.37
2023-01-09T09:00:26.196Z,12.48
2023-01-09T09:02:55.793Z,13.22
2023-01-09T09:05:24.852Z,13.67
2023-01-09T09:07:56.107Z,13.87
2023-01-09T09:10:25.544Z,11.92
2023-01-09T09:12:55.191Z,12.75
2023-01-09T09:15:26.606Z,13.27
2023-01-09T09:18:02.047Z,13.96
2023-01-09T09:20:32.475Z,13.37
2023-01-09T09:23:00.485Z,13.47
2023-01-09T09:25:28.452Z,13.71
2023-01-09T09:28:01.053Z,14.05
2023-01-09T09:30:28.983Z,13.88
2023-01-09T09:32:56.584Z,14.11
2023-01-09T09:35:24.077Z,14.46
2023-01-09T09:37:59.727Z,14.00
2023-01-09T09:40:52.341Z,13.14
2023-01-09T09:43:38.639Z,13.40
2023-01-09T09:46:15.252Z,13.35
2023-01-09T09:48:49.900Z,13.72
2023-01-09T09:51:28.395Z,14.10
2023-01-09T09:54:14.109Z,14.33
2023-01-09T09:56:53.912Z,14.54
2023-01-09T09:59:25.555Z,13.59
2023-01-09T10:01:57.471Z,14.06
2023-01-09T10:04:27.410Z,13.08
2023-01-09T10:07:01.862Z,13.96
2023-01-09T10:10:00.372Z,13.42
2023-01-09T10:12:34.413Z,13.31
2023-01-09T10:15:21.188Z,12.97
2023-01-09T10:18:12.919Z,13.35
2023-01-09T10:20:49.144Z,12.47
2023-01-09T10:23:47.621Z,12.67
2023-01-09T10:26:27.233Z,12.43
2023-01-09T10:29:09.709Z,13.33
2023-01-09T10:31:45.606Z,13.73
2023-01-09T10:34:19.088Z,13.99
2023-01-09T10:37:02.585Z,14.04
2023-01-09T10:39:47.228Z,13.88
2023-01-09T10:42:30.729Z,12.52
2023-01-09T10:45:15.797Z,13.96
2023-01-09T10:47:44.390Z,12.23
2023-01-09T10:50:25.054Z,12.85
2023-01-09T10:52:54.998Z,13.02
2023-01-09T10:55:29.547Z,13.19
2023-01-09T10:58:02.040Z,12.26
2023-01-09T11:00:30.495Z,12.30
2023-01-09T11:03:00.385Z,12.33
2023-01-09T11:05:32.706Z,12.46
2023-01-09T11:08:17.633Z,12.20
2023-01-09T11:10:56.865Z,11.73
2023-01-09T11:13:26.594Z,13.03
2023-01-09T11:16:20.148Z,12.23
2023-01-09T11:18:53.585Z,13.32
2023-01-09T11:21:36.240Z,13.44
2023-01-09T11:24:29.525Z,13.86
2023-01-09T11:27:23.366Z,13.43
2023-01-09T11:30:27.858Z,13.55
2023-01-09T11:32:56.556Z,13.56
2023-01-09T11:35:34.790Z,12.64
2023-01-09T11:38:05.515Z,13.82
2023-01-09T11:40:45.414Z,12.75
2023-01-09T11:43:33.170Z,12.62
2023-01-09T11:46:04.546Z,13.63
2023-01-09T11:48:43.520Z,14.30
2023-01-09T11:51:28.828Z,12.75
2023-01-09T11:54:06.260Z,12.79
2023-01-09T11:56:37.677Z,13.59
2023-01-09T11:59:17.115Z,13.09
2023-01-09T12:02:09.769Z,13.68
2023-01-09T12:04:48.456Z,13.54
2023-01-09T12:07:15.978Z,13.98
2023-01-09T12:09:58.015Z,13.15
2023-01-09T12:12:50.976Z,12.70
2023-01-09T12:15:31.321Z,13.29
2023-01-09T12:18:08.540Z,13.66
2023-01-09T12:20:46.972Z,12.84
2023-01-09T12:23:19.207Z,13.15
2023-01-09T12:26:18.513Z,13.82
2023-01-09T12:29:12.701Z,13.78
2023-01-09T12:31:55.524Z,11.98
2023-01-09T12:35:04.285Z,12.61
2023-01-09T12:37:56.472Z,13.46
2023-01-09T12:40:42.364Z,13.26
2023-01-09T12:43:20.368Z,13.11
2023-01-09T12:45:53.958Z,13.16
2023-01-09T12:48:27.446Z,13.22
2023-01-09T12:51:16.691Z,13.70
2023-01-09T12:53:50.361Z,13.71
2023-01-09T12:56:25.242Z,13.41
2023-01-09T12:59:33.199Z,13.34
2023-01-09T13:02:07.794Z,13.22
2023-01-09T13:04:42.265Z,13.45
2023-01-09T13:07:16.370Z,13.78
2023-01-09T13:10:22.083Z,13.78
2023-01-09T13:12:50.515Z,13.77
2023-01-09T13:15:37.870Z,14.48
2023-01-09T13:18:22.170Z,14.06
2023-01-09T13:20:53.175Z,14.23
2023-01-09T13:23:29.519Z,14.73
2023-01-09T13:26:02.916Z,13.92
2023-01-09T13:29:03.193Z,14.01
2023-01-09T13:32:08.538Z,14.67
2023-01-09T13:34:37.429Z,14.77
2023-01-09T13:37:05.611Z,14.74
2023-01-09T13:39:37.949Z,14.58
2023-01-09T13:42:25.976Z,14.71
2023-01-09T13:44:55.995Z,14.35
2023-01-09T13:47:28.331Z,14.72
2023-01-09T13:50:02.074Z,14.82
2023-01-09T13:52:40.998Z,14.86
2023-01-09T13:55:25.179Z,14.62
2023-01-09T13:58:05.627Z,14.43
2023-01-09T14:00:36.220Z,14.58
2023-01-09T14:03:31.397Z,14.31
2023-01-09T14:05:59.344Z,14.66
2023-01-09T14:08:28.952Z,14.99
2023-01-09T14:11:00.160Z,14.57
2023-01-09T14:13:29.611Z,14.86
2023-01-09T14:16:11.953Z,14.88
2023-01-09T14:19:06.421Z,14.73
2023-01-09T14:21:54.668Z,14.72
2023-01-09T14:24:27.658Z,15.50
2023-01-09T14:26:58.004Z,15.11
2023-01-09T14:29:32.252Z,14.60
2023-01-09T14:32:29.807Z,14.20
2023-01-09T14:35:20.436Z,14.36
2023-01-09T14:38:04.892Z,14.35
2023-01-09T14:40:33.372Z,14.50
2023-01-09T14:43:08.717Z,14.54
2023-01-09T14:45:39.145Z,14.67
2023-01-09T14:48:09.770Z,14.44
2023-01-09T14:50:50.704Z,14.06
2023-01-09T14:55:43.652Z,14.57
2023-01-09T14:58:21.784Z,14.80
2023-01-09T15:00:54.162Z,15.91
2023-01-09T15:03:22.966Z,17.33
2023-01-09T15:05:51.864Z,16.98
2023-01-09T15:08:23.539Z,16.51
2023-01-09T15:10:53.342Z,13.73
2023-01-09T15:13:29.677Z,14.07
2023-01-09T15:15:57.765Z,15.73
2023-01-09T15:18:29.491Z,15.42
2023-01-09T15:21:00.766Z,15.79
2023-01-09T15:23:30.657Z,14.17
2023-01-09T15:26:33.292Z,13.46
2023-01-09T15:29:05.219Z,11.84
2023-01-09T15:31:33.668Z,11.65
2023-01-09T15:34:03.835Z,12.04
2023-01-09T15:36:31.441Z,12.20
2023-01-09T15:38:59.593Z,11.13
2023-01-09T15:41:48.589Z,12.65
2023-01-09T15:44:19.821Z,14.24
2023-01-09T15:46:50.109Z,13.66
2023-01-09T15:49:18.647Z,13.67
2023-01-09T15:51:47.027Z,13.81
2023-01-09T15:54:21.169Z,14.07
2023-01-09T15:56:49.011Z,14.13
2023-01-09T15:59:28.177Z,14.05
2023-01-09T16:02:21.134Z,14.14
2023-01-09T16:04:49.507Z,14.56
2023-01-09T16:07:18.903Z,14.62
2023-01-09T16:09:47.742Z,14.89
2023-01-09T16:12:19.287Z,14.89
2023-01-09T16:14:51.811Z,15.07
2023-01-09T16:17:23.828Z,14.98
2023-01-09T16:20:00.107Z,14.96
2023-01-09T16:22:31.379Z,14.98
2023-01-09T16:25:00.903Z,15.06
2023-01-09T16:27:32.097Z,15.03
2023-01-09T16:30:01.405Z,15.01
2023-01-09T16:32:34.617Z,14.99
2023-01-09T16:35:07.701Z,14.89
2023-01-09T16:37:36.107Z,14.83
2023-01-09T16:40:18.378Z,13.88
2023-01-09T16:43:01.127Z,14.36
2023-01-09T16:45:38.365Z,14.36
2023-01-09T16:48:17.499Z,14.11
2023-01-09T16:50:45.398Z,14.68
2023-01-09T16:53:25.667Z,15.03
2023-01-09T16:55:54.054Z,15.00
2023-01-09T16:58:26.724Z,14.97
2023-01-09T17:00:54.300Z,15.02
2023-01-09T17:03:22.142Z,14.98
2023-01-09T17:05:52.051Z,15.04
2023-01-09T17:08:23.166Z,15.03
2023-01-09T17:10:52.027Z,15.11
2023-01-09T17:13:19.617Z,14.91
2023-01-09T17:15:47.137Z,14.67
2023-01-09T17:18:16.715Z,14.92
2023-01-09T17:20:46.321Z,15.51
2023-01-09T17:23:13.803Z,15.04
2023-01-09T17:26:00.739Z,15.08
2023-01-09T17:28:34.457Z,15.19
2023-01-09T17:31:09.133Z,15.23
2023-01-09T17:33:37.482Z,14.84
2023-01-09T17:36:27.676Z,14.94
2023-01-09T17:38:55.269Z,15.01
2023-01-09T17:41:24.687Z,15.00
2023-01-09T17:43:52.345Z,15.13
2023-01-09T17:46:40.739Z,15.17
2023-01-09T17:49:15.446Z,15.85
2023-01-09T17:51:42.970Z,14.74
2023-01-09T17:54:11.167Z,14.34
2023-01-09T17:56:40.528Z,15.06
2023-01-09T17:59:10.067Z,15.70
2023-01-09T18:01:37.838Z,15.01
2023-01-09T18:04:05.575Z,14.40
2023-01-09T18:06:33.131Z,13.51
2023-01-09T18:09:00.909Z,13.83
2023-01-09T18:11:28.623Z,14.63
2023-01-09T18:13:56.456Z,15.38
2023-01-09T18:16:26.533Z,15.67
2023-01-09T18:18:57.929Z,15.57
2023-01-09T18:21:28.452Z,14.55
2023-01-09T18:23:57.978Z,14.48
2023-01-09T18:26:25.825Z,15.25
2023-01-09T18:28:58.693Z,15.09
2023-01-09T18:31:28.744Z,15.88
2023-01-09T18:34:02.699Z,15.18
2023-01-09T18:36:30.769Z,14.99
2023-01-09T18:39:00.285Z,14.85
2023-01-09T18:41:29.721Z,15.89
2023-01-09T18:43:59.427Z,16.35
2023-01-09T18:46:30.860Z,15.69
2023-01-09T18:49:04.901Z,15.31
2023-01-09T18:51:35.380Z,14.94
2023-01-09T18:54:03.886Z,14.91
2023-01-09T18:56:31.317Z,14.93
2023-01-09T18:58:59.323Z,14.70
2023-01-09T19:01:29.777Z,14.84
2023-01-09T19:03:59.753Z,15.00
2023-01-09T19:06:29.087Z,14.91
2023-01-09T19:08:59.161Z,15.01
2023-01-09T19:11:28.085Z,15.21
2023-01-09T19:13:55.905Z,15.40
2023-01-09T19:16:25.134Z,15.01
2023-01-09T19:18:53.494Z,14.82
2023-01-09T19:21:23.605Z,14.77
2023-01-09T19:23:51.875Z,15.04
2023-01-09T19:26:23.746Z,15.30
2023-01-09T19:28:55.073Z,15.17
2023-01-09T19:31:24.882Z,14.44
2023-01-09T19:33:54.698Z,14.68
2023-01-09T19:36:22.824Z,14.65
2023-01-09T19:38:59.394Z,14.99
2023-01-09T19:41:27.840Z,13.57
2023-01-09T19:43:57.583Z,13.86
2023-01-09T19:46:26.494Z,13.70
2023-01-09T19:48:55.071Z,14.52
2023-01-09T19:51:26.107Z,14.80
2023-01-09T19:56:35.109Z,14.78
2023-01-09T19:59:04.311Z,14.58
2023-01-09T20:01:35.344Z,15.04
2023-01-09T20:04:10.564Z,14.71
2023-01-09T20:06:41.538Z,14.84
2023-01-09T20:09:13.298Z,14.32
2023-01-09T20:11:41.921Z,14.16
2023-01-09T20:14:14.425Z,14.84
2023-01-09T20:16:42.684Z,14.77
2023-01-09T20:19:13.364Z,14.51
2023-01-09T20:21:43.241Z,14.50
2023-01-09T20:24:15.494Z,14.48
2023-01-09T20:26:43.681Z,13.91
2023-01-09T20:29:12.776Z,13.25
2023-01-09T20:31:40.505Z,13.76
2023-01-09T20:34:13.383Z,12.84
2023-01-09T20:36:41.568Z,12.87
2023-01-09T20:39:11.600Z,11.69
2023-01-09T20:41:39.120Z,11.63
2023-01-09T20:44:13.142Z,13.04
2023-01-09T20:46:43.630Z,12.22
2023-01-09T20:49:13.745Z,12.98
2023-01-09T20:51:43.879Z,12.52
2023-01-09T20:54:13.498Z,13.01
2023-01-09T20:56:41.357Z,14.03
2023-01-09T20:59:13.011Z,12.71
2023-01-09T21:01:40.822Z,12.62
2023-01-09T21:04:08.880Z,12.23
2023-01-09T21:06:36.420Z,12.87
2023-01-09T21:09:05.109Z,13.03
2023-01-09T21:11:32.949Z,12.79
2023-01-09T21:14:00.473Z,13.46
2023-01-09T21:16:28.538Z,13.18
2023-01-09T21:18:55.979Z,12.06
2023-01-09T21:21:26.265Z,12.66
2023-01-09T21:23:57.536Z,12.65
2023-01-09T21:26:27.629Z,13.11
2023-01-09T21:28:56.742Z,13.21
2023-01-09T21:31:28.676Z,13.33
2023-01-09T21:33:56.533Z,13.88
2023-01-09T21:36:24.023Z,13.92
2023-01-09T21:38:54.345Z,13.71
2023-01-09T21:41:40.448Z,13.81
2023-01-09T21:44:30.321Z,14.05
2023-01-09T21:47:00.218Z,14.03
2023-01-09T21:49:31.205Z,14.22
2023-01-09T21:51:59.096Z,14.01
2023-01-09T21:54:26.515Z,14.04
2023-01-09T21:56:54.824Z,14.53
2023-01-09T21:59:22.899Z,14.82
2023-01-09T22:01:50.987Z,14.48
2023-01-09T22:04:21.212Z,14.34
2023-01-09T22:06:48.719Z,14.49
2023-01-09T22:09:16.649Z,13.73
2023-01-09T22:11:44.621Z,13.88
2023-01-09T22:14:17.004Z,13.91
2023-01-09T22:16:45.529Z,14.13
2023-01-09T22:19:14.169Z,14.42
2023-01-09T22:21:41.595Z,14.23
2023-01-09T22:24:12.976Z,14.47
2023-01-09T22:26:40.565Z,14.33
2023-01-09T22:29:08.691Z,14.33
2023-01-09T22:31:39.738Z,14.25
2023-01-09T22:34:07.606Z,14.09
2023-01-09T22:36:35.384Z,14.19
2023-01-09T22:39:02.979Z,14.04
2023-01-09T22:41:30.858Z,14.06
2023-01-09T22:43:58.895Z,14.47
2023-01-09T22:46:26.468Z,14.27
2023-01-09T22:48:54.121Z,14.39
2023-01-09T22:51:22.011Z,14.66
2023-01-09T22:53:50.263Z,14.20
2023-01-09T22:56:19.773Z,14.66
2023-01-09T22:58:55.175Z,14.53
2023-01-09T23:01:22.947Z,14.50
2023-01-09T23:03:50.618Z,14.49
2023-01-09T23:06:20.892Z,15.09
2023-01-09T23:08:50.631Z,14.97
2023-01-09T23:11:44.994Z,14.74
2023-01-09T23:14:13.077Z,14.74
2023-01-09T23:16:41.116Z,15.20
2023-01-09T23:19:09.908Z,14.95
2023-01-09T23:21:37.502Z,15.44
2023-01-09T23:24:06.985Z,15.19
2023-01-09T23:26:35.127Z,15.07
2023-01-09T23:29:02.570Z,15.30
2023-01-09T23:31:30.289Z,15.47
2023-01-09T23:33:58.032Z,15.32
2023-01-09T23:36:25.396Z,14.85
2023-01-09T23:38:53.274Z,14.69
2023-01-09T23:41:22.432Z,15.26
2023-01-09T23:43:49.807Z,15.57
2023-01-09T23:46:17.493Z,15.20
2023-01-09T23:48:44.870Z,14.09
2023-01-09T23:51:12.248Z,13.48
2023-01-09T23:53:39.935Z,14.69
2023-01-09T23:56:07.433Z,14.07
2023-01-09T23:58:36.038Z,15.01
